Time;durP1;ratioP1;P1;durP2;ratioP2;P2;SDS_P1;SDS_P2;PMS_P1;PMS_P2;Temp;Humidity;BMP_temperature;BMP_pressure;BME280_temperature;BME280_humidity;BME280_pressure;Samples;Min_cycle;Max_cycle;Signal;HPM_P1;HPM_P2
2023/01/20 00:01:10;;;;;;;24.50;6.33;;;;;;;3.16;96.19;100410.81;5013421;28;20452;-70
2023/01/20 00:03:38;;;;;;;13.53;6.20;;;;;;;3.13;95.44;100410.50;5013487;28;20460;-69
2023/01/20 00:06:04;;;;;;;21.20;5.80;;;;;;;3.09;95.74;100418.22;5013227;28;20966;-70
2023/01/20 00:08:31;;;;;;;14.30;6.30;;;;;;;3.13;95.85;100413.97;5013304;28;20457;-70
2023/01/20 00:10:58;;;;;;;19.27;6.50;;;;;;;3.14;96.05;100418.28;5013278;28;20458;-70
2023/01/20 00:13:25;;;;;;;16.90;6.40;;;;;;;3.18;95.76;100416.69;5013331;28;20574;-68
2023/01/20 00:15:53;;;;;;;12.50;5.70;;;;;;;3.19;96.02;100412.19;5012735;28;20841;-70
2023/01/20 00:18:19;;;;;;;13.33;5.90;;;;;;;3.21;95.75;100415.38;5012902;28;20482;-69
2023/01/20 00:20:46;;;;;;;14.10;6.57;;;;;;;3.11;95.86;100416.13;5012964;28;20482;-70
2023/01/20 00:23:12;;;;;;;13.67;6.50;;;;;;;3.12;95.96;100416.94;5012772;28;20464;-70
2023/01/20 00:25:39;;;;;;;17.63;6.33;;;;;;;3.13;95.74;100424.69;5012782;28;20447;-71
2023/01/20 00:28:05;;;;;;;14.33;5.83;;;;;;;3.16;95.71;100418.84;5013030;28;20853;-70
2023/01/20 00:30:32;;;;;;;14.43;5.87;;;;;;;3.17;95.76;100423.13;5012593;28;20833;-69
2023/01/20 00:33:00;;;;;;;15.43;6.33;;;;;;;3.22;95.92;100425.03;5013104;28;20728;-69
2023/01/20 00:35:27;;;;;;;13.97;6.03;;;;;;;3.12;95.00;100432.97;5012637;28;20945;-71
2023/01/20 00:37:53;;;;;;;13.77;5.90;;;;;;;3.11;95.16;100431.38;5012903;28;20964;-70
2023/01/20 00:40:20;;;;;;;16.13;6.50;;;;;;;3.19;94.50;100434.38;5013099;28;20478;-70
2023/01/20 00:42:47;;;;;;;19.93;6.40;;;;;;;3.21;94.70;100437.59;5013036;28;20472;-68
2023/01/20 00:45:13;;;;;;;15.23;5.77;;;;;;;3.19;95.01;100445.09;5013083;28;20454;-70
2023/01/20 00:47:40;;;;;;;13.37;5.97;;;;;;;3.15;95.06;100441.31;5012724;28;20455;-70
2023/01/20 00:50:09;;;;;;;14.97;6.50;;;;;;;3.20;95.13;100445.91;5012579;28;20949;-69
2023/01/20 00:52:36;;;;;;;16.50;6.20;;;;;;;3.12;95.61;100447.16;5012710;28;20543;-70
2023/01/20 00:57:34;;;;;;;19.00;7.27;;;;;;;3.19;95.23;100447.78;5030463;28;20988;-70
2023/01/20 01:00:01;;;;;;;16.27;6.00;;;;;;;3.13;95.61;100446.09;5032368;28;20450;-70
2023/01/20 01:02:28;;;;;;;15.37;5.63;;;;;;;3.09;95.64;100450.34;5032657;28;20470;-70
2023/01/20 01:04:54;;;;;;;20.17;6.63;;;;;;;3.12;95.30;100455.19;5032293;28;20443;-70
2023/01/20 01:07:22;;;;;;;14.83;5.10;;;;;;;3.12;95.42;100459.75;5032243;28;20998;-68
2023/01/20 01:09:49;;;;;;;17.90;5.83;;;;;;;3.13;95.15;100467.50;5032601;28;20446;-69
2023/01/20 01:12:15;;;;;;;11.30;5.53;;;;;;;3.07;95.54;100468.53;5032593;28;20439;-69
2023/01/20 01:14:42;;;;;;;14.63;5.80;;;;;;;3.13;95.20;100469.38;5032189;28;20482;-69
2023/01/20 01:17:08;;;;;;;17.17;7.23;;;;;;;3.11;94.87;100466.16;5032809;28;20826;-69
2023/01/20 01:19:35;;;;;;;17.80;5.87;;;;;;;3.12;94.61;100473.91;5032511;28;20455;-69
2023/01/20 01:22:01;;;;;;;15.10;6.57;;;;;;;3.12;94.53;100475.78;5032189;28;20541;-69
2023/01/20 01:24:29;;;;;;;14.73;5.40;;;;;;;3.04;94.14;100469.03;5032538;28;20442;-69
2023/01/20 01:26:56;;;;;;;16.00;6.23;;;;;;;2.96;94.29;100474.84;5032390;28;20551;-68
2023/01/20 01:29:23;;;;;;;12.50;5.20;;;;;;;2.94;94.06;100468.94;5035616;28;20516;-69
2023/01/20 01:31:49;;;;;;;15.17;5.40;;;;;;;2.93;93.37;100483.38;5035644;28;21180;-69
2023/01/20 01:34:16;;;;;;;15.10;5.90;;;;;;;2.88;93.67;100475.28;5035840;28;20479;-69
2023/01/20 01:36:42;;;;;;;15.37;5.00;;;;;;;2.86;93.56;100472.06;5035733;28;20459;-69
2023/01/20 01:39:09;;;;;;;13.67;5.43;;;;;;;2.84;93.27;100469.66;5035495;28;20477;-69
2023/01/20 01:41:37;;;;;;;16.03;5.97;;;;;;;2.80;93.04;100478.44;5035458;28;20443;-69
2023/01/20 01:44:07;;;;;;;14.73;5.97;;;;;;;2.82;93.46;100481.66;5036097;28;20471;-69
2023/01/20 01:46:35;;;;;;;16.93;5.57;;;;;;;2.77;93.97;100480.53;5035312;28;20505;-69
2023/01/20 01:49:07;;;;;;;36.20;6.80;;;;;;;2.77;93.64;100485.88;5035310;28;20450;-69
2023/01/20 01:51:37;;;;;;;17.30;5.90;;;;;;;2.80;93.89;100491.81;5035620;28;20470;-69
2023/01/20 01:54:09;;;;;;;12.03;4.60;;;;;;;2.84;93.90;100495.59;5035406;28;20574;-69
2023/01/20 01:56:40;;;;;;;13.20;5.27;;;;;;;2.88;94.08;100502.88;5034998;28;20471;-69
2023/01/20 01:59:08;;;;;;;12.50;5.47;;;;;;;2.89;94.23;100498.31;5035480;28;20435;-69
2023/01/20 02:01:38;;;;;;;12.97;5.60;;;;;;;2.91;94.08;100499.66;5035371;28;20453;-69
2023/01/20 02:04:09;;;;;;;12.80;6.17;;;;;;;2.88;93.66;100507.38;5035070;28;20486;-69
2023/01/20 02:06:39;;;;;;;10.63;4.40;;;;;;;2.84;94.01;100506.28;5034923;28;20459;-69
2023/01/20 02:09:06;;;;;;;13.43;5.40;;;;;;;2.85;94.15;100507.91;5034921;28;20530;-69
2023/01/20 02:11:44;;;;;;;11.30;5.67;;;;;;;2.75;94.71;100519.31;5035210;28;20439;-69
2023/01/20 02:14:10;;;;;;;11.23;4.90;;;;;;;2.84;94.35;100519.66;5034801;28;20998;-69
2023/01/20 02:16:49;;;;;;;14.00;4.97;;;;;;;2.88;94.01;100523.44;5034781;28;20546;-69
2023/01/20 02:19:48;;;;;;;14.63;5.57;;;;;;;2.90;93.83;100527.47;5035136;28;20434;-69
2023/01/20 02:22:28;;;;;;;16.53;6.47;;;;;;;2.94;93.91;100535.81;5035020;28;20531;-69
2023/01/20 02:25:28;;;;;;;11.77;5.30;;;;;;;2.98;93.48;100534.25;5034999;28;20522;-69
2023/01/20 02:28:36;;;;;;;16.53;6.13;;;;;;;2.95;93.79;100540.91;5034928;28;20432;-68
2023/01/20 02:32:00;;;;;;;14.00;5.90;;;;;;;2.96;94.11;100539.03;5034536;28;20798;-68
2023/01/20 02:34:32;;;;;;;11.83;5.17;;;;;;;3.00;93.85;100537.47;5034364;28;20578;-69
2023/01/20 02:37:03;;;;;;;11.93;5.77;;;;;;;2.96;93.43;100541.72;5034671;28;20534;-68
2023/01/20 02:39:39;;;;;;;17.00;6.63;;;;;;;2.85;93.96;100548.03;5034300;28;20516;-68
2023/01/20 02:42:10;;;;;;;16.53;6.47;;;;;;;2.83;93.51;100547.44;5034415;28;20510;-68
2023/01/20 02:44:42;;;;;;;17.30;6.97;;;;;;;2.78;94.15;100550.88;5034597;28;20423;-69
2023/01/20 02:47:15;;;;;;;15.20;5.93;;;;;;;2.82;93.66;100557.34;5034495;28;20467;-68
2023/01/20 02:49:49;;;;;;;17.20;6.93;;;;;;;2.70;94.33;100560.16;5034486;28;20432;-68
2023/01/20 02:52:21;;;;;;;17.80;7.23;;;;;;;2.78;93.49;100574.94;5034476;28;20423;-68
2023/01/20 02:54:51;;;;;;;17.70;6.70;;;;;;;2.75;93.80;100572.78;5033995;28;21008;-68
2023/01/20 02:57:23;;;;;;;19.53;5.90;;;;;;;2.65;94.34;100578.81;5033895;28;20475;-68
2023/01/20 02:59:54;;;;;;;17.73;5.40;;;;;;;2.62;94.50;100584.66;5034044;28;20466;-68
2023/01/20 03:02:25;;;;;;;21.70;7.53;;;;;;;2.53;94.67;100584.28;5034319;28;20641;-69
2023/01/20 03:04:57;;;;;;;18.10;6.83;;;;;;;2.49;94.48;100582.34;5034198;28;20506;-69
2023/01/20 03:07:28;;;;;;;20.53;8.27;;;;;;;2.57;94.43;100595.31;5034137;28;20460;-68
2023/01/20 03:09:58;;;;;;;22.20;6.90;;;;;;;2.51;94.96;100589.06;5033800;28;20443;-68
2023/01/20 03:12:29;;;;;;;28.50;6.93;;;;;;;2.52;95.71;100597.88;5034065;28;20455;-68
2023/01/20 03:14:56;;;;;;;19.20;7.60;;;;;;;2.57;95.51;100594.47;5033998;28;20502;-69
2023/01/20 03:17:24;;;;;;;19.13;6.40;;;;;;;2.58;95.36;100596.91;5033924;28;20491;-68
2023/01/20 03:19:51;;;;;;;18.67;7.40;;;;;;;2.65;95.43;100599.38;5033602;28;20443;-69
2023/01/20 03:22:18;;;;;;;19.10;7.73;;;;;;;2.61;95.68;100593.75;5033619;28;20807;-71
2023/01/20 03:24:47;;;;;;;21.10;7.87;;;;;;;2.62;95.45;100603.38;5033781;28;20534;-70
2023/01/20 03:27:14;;;;;;;22.07;8.10;;;;;;;2.67;95.16;100608.00;5033732;28;20459;-71
2023/01/20 03:29:41;;;;;;;17.57;7.13;;;;;;;2.62;95.66;100608.72;5033776;28;20443;-70
2023/01/20 03:32:10;;;;;;;23.17;7.67;;;;;;;2.64;95.61;100611.16;5033738;28;20542;-69
2023/01/20 03:34:41;;;;;;;19.10;8.50;;;;;;;2.65;95.96;100610.09;5033297;28;20851;-70
2023/01/20 03:37:09;;;;;;;16.50;6.83;;;;;;;2.60;96.39;100610.81;5033624;28;20459;-69
2023/01/20 03:39:38;;;;;;;19.83;8.40;;;;;;;2.53;96.42;100612.88;5033634;28;20446;-69
2023/01/20 03:42:09;;;;;;;22.53;9.67;;;;;;;2.58;96.45;100614.81;5033605;28;20493;-70
2023/01/20 03:44:51;;;;;;;16.37;7.13;;;;;;;2.59;96.14;100614.56;5033519;28;20518;-70
2023/01/20 03:47:25;;;;;;;18.27;7.23;;;;;;;2.59;96.26;100611.09;5033447;28;20470;-69
2023/01/20 03:50:00;;;;;;;19.37;8.47;;;;;;;2.55;96.10;100615.31;5033262;28;20433;-69
2023/01/20 03:52:34;;;;;;;17.60;8.07;;;;;;;2.59;95.70;100624.44;5033293;28;20438;-69
2023/01/20 03:55:05;;;;;;;19.10;7.30;;;;;;;2.57;95.02;100630.06;5033027;28;21003;-69
2023/01/20 03:57:37;;;;;;;22.93;8.20;;;;;;;2.48;95.21;100626.19;5032950;28;20477;-70
2023/01/20 04:00:07;;;;;;;18.83;8.03;;;;;;;2.43;96.00;100626.09;5033046;28;20463;-70
2023/01/20 04:02:35;;;;;;;17.67;7.63;;;;;;;2.29;95.29;100622.97;5033543;28;20445;-70
2023/01/20 04:05:05;;;;;;;22.30;8.70;;;;;;;2.23;95.74;100626.63;5032821;28;20475;-69
2023/01/20 04:07:32;;;;;;;20.40;8.80;;;;;;;2.19;95.76;100628.97;5033178;28;20443;-69
2023/01/20 04:10:05;;;;;;;17.10;8.03;;;;;;;2.16;96.34;100634.78;5033167;28;20451;-69
2023/01/20 04:12:32;;;;;;;22.77;9.40;;;;;;;2.18;96.40;100635.38;5033210;28;20467;-69
2023/01/20 04:15:00;;;;;;;17.80;8.40;;;;;;;2.16;96.30;100650.00;5032704;28;20864;-69
2023/01/20 04:17:28;;;;;;;21.40;8.73;;;;;;;2.09;97.22;100636.84;5033124;28;20478;-69
2023/01/20 04:19:55;;;;;;;18.20;8.27;;;;;;;2.05;98.32;100649.06;5033058;28;20447;-69
2023/01/20 04:22:28;;;;;;;23.57;9.80;;;;;;;2.14;98.04;100654.81;5033050;28;20518;-69
2023/01/20 04:24:57;;;;;;;19.10;7.90;;;;;;;2.09;98.52;100658.22;5032753;28;20423;-70
2023/01/20 04:27:24;;;;;;;24.73;9.40;;;;;;;2.01;98.94;100654.06;5032948;28;20904;-69
2023/01/20 04:29:51;;;;;;;17.80;8.27;;;;;;;2.00;97.99;100657.78;5032971;28;20450;-69
2023/01/20 04:32:17;;;;;;;27.93;10.40;;;;;;;1.98;98.40;100659.06;5032653;28;20857;-70
2023/01/20 04:34:44;;;;;;;23.10;9.30;;;;;;;2.00;97.58;100663.13;5032512;28;20483;-69
2023/01/20 04:37:10;;;;;;;20.00;8.83;;;;;;;1.84;98.07;100669.28;5032869;28;20546;-69
2023/01/20 04:39:38;;;;;;;24.10;8.50;;;;;;;1.78;98.69;100672.91;5032902;28;20525;-69
2023/01/20 04:42:05;;;;;;;21.87;9.83;;;;;;;1.80;98.95;100672.66;5032546;28;20948;-69
2023/01/20 04:44:31;;;;;;;20.30;7.70;;;;;;;1.78;99.28;100675.59;5032455;28;20443;-69
2023/01/20 04:46:58;;;;;;;21.07;9.13;;;;;;;1.81;98.67;100682.28;5032339;28;20470;-69
2023/01/20 04:49:25;;;;;;;23.70;9.27;;;;;;;1.81;98.41;100684.94;5032771;28;20450;-69
2023/01/20 04:51:52;;;;;;;22.90;9.00;;;;;;;1.76;98.75;100683.81;5032764;28;20447;-70
2023/01/20 04:54:18;;;;;;;22.83;9.17;;;;;;;1.72;99.03;100693.34;5032701;28;20483;-70
2023/01/20 04:56:47;;;;;;;36.17;9.87;;;;;;;1.77;99.01;100696.13;5032346;28;20565;-69
2023/01/20 04:59:14;;;;;;;18.37;8.90;;;;;;;1.72;98.93;100697.88;5032556;28;20461;-69
2023/01/20 05:01:40;;;;;;;21.07;9.83;;;;;;;1.74;98.72;100693.94;5032661;28;20521;-70
2023/01/20 05:04:07;;;;;;;24.93;9.07;;;;;;;1.75;98.70;100703.56;5035394;28;20474;-69
2023/01/20 05:06:34;;;;;;;35.53;9.03;;;;;;;1.68;99.07;100700.25;5036355;28;20475;-69
2023/01/20 05:09:00;;;;;;;20.77;8.47;;;;;;;1.74;99.04;100707.28;5036100;28;20998;-69
2023/01/20 05:11:27;;;;;;;20.70;9.23;;;;;;;1.76;98.66;100701.69;5036035;28;20454;-69
2023/01/20 05:13:55;;;;;;;22.13;8.80;;;;;;;1.79;98.43;100708.44;5035896;28;20439;-70
2023/01/20 05:16:24;;;;;;;25.70;9.03;;;;;;;1.75;98.16;100708.91;5036245;28;20550;-69
2023/01/20 05:18:51;;;;;;;21.97;8.43;;;;;;;1.73;98.28;100711.00;5036187;28;20442;-70
2023/01/20 05:21:18;;;;;;;22.37;7.80;;;;;;;1.74;98.07;100720.63;5036205;28;20445;-70
2023/01/20 05:23:44;;;;;;;21.67;9.90;;;;;;;1.70;98.17;100716.81;5035856;28;20530;-69
2023/01/20 05:26:11;;;;;;;18.30;8.77;;;;;;;1.66;98.58;100720.22;5035836;28;20835;-69
2023/01/20 05:28:38;;;;;;;26.37;9.30;;;;;;;1.74;98.20;100725.16;5036065;28;20438;-67
2023/01/20 05:31:05;;;;;;;31.23;10.10;;;;;;;1.74;98.18;100723.31;5036365;28;20439;-68
2023/01/20 05:33:32;;;;;;;28.87;9.93;;;;;;;1.75;98.45;100732.94;5035963;28;20887;-68
2023/01/20 05:35:59;;;;;;;19.83;9.07;;;;;;;1.80;98.39;100728.75;5035767;28;20489;-67
2023/01/20 05:38:25;;;;;;;20.10;8.87;;;;;;;1.76;98.37;100736.41;5035795;28;20486;-67
2023/01/20 05:40:59;;;;;;;31.10;9.40;;;;;;;1.80;97.71;100742.09;5035420;28;20534;-68
2023/01/20 05:43:25;;;;;;;25.10;10.47;;;;;;;1.76;98.71;100744.41;5035402;28;20789;-68
2023/01/20 05:45:52;;;;;;;26.50;10.03;;;;;;;1.76;98.44;100742.56;5035265;28;20477;-68
2023/01/20 05:48:20;;;;;;;26.10;10.43;;;;;;;1.68;99.05;100750.13;5035297;28;20450;-67
2023/01/20 05:50:47;;;;;;;25.47;10.77;;;;;;;1.68;98.80;100761.66;5034955;28;20927;-67
2023/01/20 05:53:14;;;;;;;29.93;10.20;;;;;;;1.58;99.51;100761.44;5035542;28;20446;-67
2023/01/20 05:55:41;;;;;;;30.67;10.90;;;;;;;1.66;99.43;100757.59;5034962;28;20507;-67
2023/01/20 05:58:07;;;;;;;22.27;8.77;;;;;;;1.66;98.84;100766.41;5035369;28;20443;-68
2023/01/20 06:00:34;;;;;;;25.33;10.07;;;;;;;1.61;98.39;100768.16;5035486;28;20446;-68
2023/01/20 06:03:01;;;;;;;20.30;8.03;;;;;;;1.64;98.58;100770.34;5035054;28;20809;-67
2023/01/20 06:05:29;;;;;;;30.53;10.20;;;;;;;1.56;98.78;100776.88;5035274;28;20470;-67
2023/01/20 06:07:57;;;;;;;19.40;9.00;;;;;;;1.54;99.11;100778.97;5034941;28;20439;-68
2023/01/20 06:10:26;;;;;;;27.37;9.47;;;;;;;1.55;99.27;100782.44;5034540;28;21000;-67
2023/01/20 06:12:54;;;;;;;22.40;9.07;;;;;;;1.58;99.49;100788.13;5034463;28;20440;-67
2023/01/20 06:15:22;;;;;;;26.87;9.90;;;;;;;1.61;99.00;100790.34;5034380;28;20494;-68
2023/01/20 06:17:49;;;;;;;24.70;9.93;;;;;;;1.52;98.17;100800.56;5034948;28;20446;-67
2023/01/20 06:20:16;;;;;;;24.40;9.30;;;;;;;1.50;98.77;100807.16;5035049;28;20530;-68
2023/01/20 06:22:44;;;;;;;20.37;8.60;;;;;;;1.50;99.70;100801.84;5034998;28;20442;-67
2023/01/20 06:25:10;;;;;;;22.80;9.73;;;;;;;1.50;99.35;100807.97;5034917;28;20814;-67
2023/01/20 06:27:37;;;;;;;22.70;10.27;;;;;;;1.53;99.30;100812.03;5034984;28;20451;-68
2023/01/20 06:30:04;;;;;;;24.63;8.77;;;;;;;1.49;99.21;100811.69;5034915;28;20458;-67
2023/01/20 06:32:30;;;;;;;23.50;8.33;;;;;;;1.44;99.50;100816.13;5034518;28;21028;-67
2023/01/20 06:34:57;;;;;;;22.40;9.17;;;;;;;1.41;99.51;100820.06;5034425;28;20995;-67
2023/01/20 06:37:23;;;;;;;25.50;10.83;;;;;;;1.35;100.00;100821.00;5034670;28;20466;-67
2023/01/20 06:39:51;;;;;;;20.80;8.00;;;;;;;1.34;99.56;100829.25;5034707;28;20443;-67
2023/01/20 06:42:18;;;;;;;29.90;10.70;;;;;;;1.33;99.67;100832.94;5034372;28;20531;-67
2023/01/20 06:44:44;;;;;;;22.77;9.70;;;;;;;1.34;99.90;100837.28;5034306;28;20435;-67
2023/01/20 06:47:11;;;;;;;22.60;9.87;;;;;;;1.35;100.00;100846.88;5034207;28;20467;-67
2023/01/20 06:49:38;;;;;;;23.00;9.60;;;;;;;1.36;99.42;100853.84;5034169;28;20941;-68
2023/01/20 06:52:05;;;;;;;19.40;9.57;;;;;;;1.32;99.63;100866.84;5034193;28;20518;-67
2023/01/20 06:54:31;;;;;;;19.37;7.47;;;;;;;1.16;99.60;100867.56;5034088;28;20458;-67
2023/01/20 06:56:59;;;;;;;20.57;8.30;;;;;;;1.33;99.72;100870.31;5035141;28;20854;-67
2023/01/20 06:59:26;;;;;;;29.43;10.30;;;;;;;1.34;99.48;100871.97;5034028;28;20481;-68
2023/01/20 07:01:53;;;;;;;29.03;9.33;;;;;;;1.37;99.01;100884.81;5033967;28;20445;-68
2023/01/20 07:04:19;;;;;;;20.13;9.60;;;;;;;1.38;99.42;100887.28;5034162;28;20443;-69
2023/01/20 07:06:46;;;;;;;27.03;10.23;;;;;;;1.34;99.42;100880.78;5034066;28;20466;-69
2023/01/20 07:09:13;;;;;;;23.40;9.63;;;;;;;1.47;99.26;100882.41;5034087;28;20443;-71
2023/01/20 07:11:40;;;;;;;25.07;10.27;;;;;;;1.43;99.52;100883.91;5033814;28;21009;-70
2023/01/20 07:14:08;;;;;;;25.40;9.90;;;;;;;1.42;99.86;100890.28;5034031;28;20440;-71
2023/01/20 07:16:36;;;;;;;19.87;9.10;;;;;;;1.52;98.97;100895.84;5033552;28;20544;-70
2023/01/20 07:19:02;;;;;;;26.40;8.60;;;;;;;1.55;99.05;100900.72;5033940;28;20435;-71
2023/01/20 07:21:29;;;;;;;23.97;9.30;;;;;;;1.55;99.12;100906.06;5033855;28;20453;-69
2023/01/20 07:23:56;;;;;;;29.13;10.17;;;;;;;1.57;99.54;100908.50;5033816;28;20550;-71
2023/01/20 07:26:25;;;;;;;25.10;11.07;;;;;;;1.62;99.42;100911.28;5032992;28;20463;-69
2023/01/20 07:28:52;;;;;;;30.67;11.27;;;;;;;1.54;99.79;100914.28;5033805;28;20461;-68
2023/01/20 07:31:22;;;;;;;26.83;10.73;;;;;;;1.59;99.86;100915.22;5033754;28;20501;-69
2023/01/20 07:33:49;;;;;;;24.60;11.30;;;;;;;1.59;100.00;100925.88;5033677;28;20431;-68
2023/01/20 07:36:16;;;;;;;26.83;10.80;;;;;;;1.65;99.96;100924.97;5033445;28;20511;-68
2023/01/20 07:38:46;;;;;;;29.13;11.00;;;;;;;1.75;99.48;100927.84;5033624;28;20465;-72
2023/01/20 07:41:14;;;;;;;32.30;12.03;;;;;;;1.60;99.91;100930.19;5033971;28;20543;-68
2023/01/20 07:43:41;;;;;;;28.03;10.27;;;;;;;1.73;100.00;100932.63;5033562;28;20454;-69
2023/01/20 07:46:08;;;;;;;25.77;10.10;;;;;;;1.75;99.54;100927.84;5033137;28;20887;-68
2023/01/20 07:48:37;;;;;;;21.43;9.47;;;;;;;1.76;99.63;100934.81;5033834;28;20533;-68
2023/01/20 07:51:05;;;;;;;30.27;11.77;;;;;;;1.80;99.17;100939.69;5033391;28;20448;-68
2023/01/20 07:53:34;;;;;;;28.10;12.13;;;;;;;1.84;99.74;100935.50;5033367;28;20449;-70
2023/01/20 07:56:01;;;;;;;25.13;11.03;;;;;;;1.86;98.93;100938.75;5032936;28;20542;-69
2023/01/20 07:58:28;;;;;;;26.60;10.57;;;;;;;1.84;99.15;100938.19;5033297;28;20451;-70
2023/01/20 08:00:55;;;;;;;27.37;10.70;;;;;;;1.84;97.41;100946.19;5032980;28;20983;-69
2023/01/20 08:03:22;;;;;;;30.53;11.77;;;;;;;1.86;97.19;100938.75;5033426;28;20439;-67
2023/01/20 08:05:50;;;;;;;22.63;9.40;;;;;;;1.83;97.23;100944.56;5033139;28;20471;-67
2023/01/20 08:08:17;;;;;;;27.87;8.60;;;;;;;1.90;96.85;100953.25;5032951;28;20971;-67
2023/01/20 08:10:43;;;;;;;27.77;10.47;;;;;;;1.92;96.43;100954.66;5033413;28;20494;-67
2023/01/20 08:13:10;;;;;;;22.53;9.33;;;;;;;1.92;96.54;100954.66;5033222;28;20453;-67
2023/01/20 08:15:36;;;;;;;25.63;9.70;;;;;;;1.99;96.44;100954.53;5033018;28;20493;-67
2023/01/20 08:18:03;;;;;;;26.07;11.00;;;;;;;1.91;96.76;100957.56;5033128;28;20451;-67
2023/01/20 08:20:30;;;;;;;32.30;11.40;;;;;;;1.93;95.84;100958.94;5032784;28;20521;-69
2023/01/20 08:22:57;;;;;;;32.17;11.50;;;;;;;2.06;95.64;100962.44;5033016;28;20537;-69
2023/01/20 08:25:24;;;;;;;24.70;9.93;;;;;;;2.06;95.28;100970.44;5032716;28;20455;-68
2023/01/20 08:27:51;;;;;;;21.27;9.97;;;;;;;2.08;94.55;100971.84;5033037;28;20483;-68
2023/01/20 08:30:18;;;;;;;25.93;9.80;;;;;;;2.11;95.54;100976.69;5033089;28;20443;-68
2023/01/20 08:32:45;;;;;;;26.33;10.70;;;;;;;2.23;95.23;100979.34;5032997;28;20479;-68
2023/01/20 08:35:11;;;;;;;28.03;9.73;;;;;;;2.24;95.26;100986.31;5032824;28;20443;-68
2023/01/20 08:37:38;;;;;;;35.03;12.40;;;;;;;2.23;95.84;100982.03;5035030;28;21042;-68
2023/01/20 08:40:08;;;;;;;29.90;10.73;;;;;;;2.22;96.25;100977.75;5036958;28;20439;-68
2023/01/20 08:42:35;;;;;;;23.93;10.17;;;;;;;2.11;96.04;100990.06;5036683;28;20474;-67
2023/01/20 08:45:02;;;;;;;26.30;10.50;;;;;;;2.08;97.28;100995.88;5036428;28;20447;-68
2023/01/20 08:47:29;;;;;;;24.53;9.80;;;;;;;2.23;97.16;100988.19;5036676;28;20439;-68
2023/01/20 08:49:55;;;;;;;30.07;10.27;;;;;;;2.25;96.85;100999.44;5036720;28;20474;-69
2023/01/20 08:52:22;;;;;;;21.03;8.87;;;;;;;2.23;97.61;101004.22;5036654;28;20439;-69
2023/01/20 08:54:52;;;;;;;23.57;9.87;;;;;;;2.34;96.92;101007.09;5036582;28;20449;-68
2023/01/20 08:57:20;;;;;;;25.70;10.20;;;;;;;2.40;96.39;101006.16;5036076;28;20507;-68
2023/01/20 08:59:47;;;;;;;28.77;11.40;;;;;;;2.48;95.69;101006.59;5036276;28;20538;-68
2023/01/20 09:02:14;;;;;;;32.87;11.37;;;;;;;2.34;95.57;101007.91;5036258;28;20959;-68
2023/01/20 09:04:41;;;;;;;25.97;10.80;;;;;;;2.46;96.22;101015.91;5036448;28;20537;-68
2023/01/20 09:07:10;;;;;;;27.53;8.83;;;;;;;2.60;95.47;101014.56;5036329;28;20537;-68
2023/01/20 09:09:36;;;;;;;32.13;11.40;;;;;;;2.49;96.18;101026.94;5036382;28;20442;-69
2023/01/20 09:12:04;;;;;;;26.47;10.40;;;;;;;2.62;95.60;101019.72;5035993;28;20482;-69
2023/01/20 09:14:32;;;;;;;30.13;10.93;;;;;;;2.66;94.94;101026.22;5036323;28;20534;-69
2023/01/20 09:16:59;;;;;;;24.40;9.87;;;;;;;2.75;94.61;101038.97;5036111;28;20486;-68
2023/01/20 09:19:26;;;;;;;28.47;11.17;;;;;;;2.76;93.64;101042.44;5035855;28;20454;-68
2023/01/20 09:21:52;;;;;;;28.80;11.37;;;;;;;2.80;93.69;101040.94;5036201;28;20466;-68
2023/01/20 09:24:19;;;;;;;26.77;10.37;;;;;;;2.83;93.23;101040.44;5036172;28;20541;-69
2023/01/20 09:26:47;;;;;;;40.73;12.70;;;;;;;2.84;92.80;101054.63;5035690;28;20546;-68
2023/01/20 09:29:16;;;;;;;36.03;12.17;;;;;;;2.85;92.59;101053.59;5036093;28;20474;-68
2023/01/20 09:31:48;;;;;;;33.43;11.47;;;;;;;2.89;91.94;101060.91;5036007;28;20545;-68
2023/01/20 09:34:18;;;;;;;30.33;10.60;;;;;;;2.83;92.44;101067.19;5035980;28;20454;-68
2023/01/20 09:36:44;;;;;;;26.47;10.13;;;;;;;2.86;91.42;101065.91;5035750;28;20545;-68
2023/01/20 09:45:09;;;;;;;30.80;12.50;;;;;;;2.69;91.73;101080.00;5035600;28;20407;-68
2023/01/20 09:47:43;;;;;;;27.20;10.97;;;;;;;2.70;91.51;101076.31;5035461;28;20470;-68
2023/01/20 09:53:29;;;;;;;22.97;10.47;;;;;;;2.76;91.28;101082.56;5035690;28;20411;-68
2023/01/20 09:55:58;;;;;;;34.90;10.70;;;;;;;2.84;91.47;101084.88;5035235;28;20498;-68
2023/01/20 09:58:32;;;;;;;24.37;10.10;;;;;;;2.90;91.31;101085.78;5035537;28;20543;-68
2023/01/20 10:01:09;;;;;;;41.47;11.73;;;;;;;2.74;91.27;101085.47;5035471;28;20474;-68
2023/01/20 10:03:43;;;;;;;23.60;10.00;;;;;;;2.81;91.45;101084.53;5035108;28;20928;-68
2023/01/20 10:06:14;;;;;;;28.10;11.00;;;;;;;2.95;91.14;101091.22;5035030;28;21032;-68
2023/01/20 10:08:49;;;;;;;23.87;9.20;;;;;;;2.86;90.32;101092.66;5034919;28;20905;-68
2023/01/20 10:11:18;;;;;;;30.50;10.47;;;;;;;2.85;90.34;101104.41;5035519;28;20522;-68
2023/01/20 10:13:50;;;;;;;31.37;10.73;;;;;;;2.85;90.04;101099.88;5035153;28;20443;-68
2023/01/20 10:16:26;;;;;;;23.97;10.33;;;;;;;2.93;89.71;101101.38;5035051;28;20851;-68
2023/01/20 10:19:00;;;;;;;20.97;9.50;;;;;;;2.96;88.48;101099.00;5034821;28;21019;-68
2023/01/20 10:21:34;;;;;;;27.20;9.57;;;;;;;2.61;89.73;101101.78;5035110;28;20423;-68
2023/01/20 10:24:07;;;;;;;36.33;10.93;;;;;;;2.29;92.39;101098.66;5035044;28;20434;-68
2023/01/20 10:26:38;;;;;;;27.40;10.40;;;;;;;2.56;92.01;101099.00;5034633;28;20812;-68
2023/01/20 10:29:13;;;;;;;24.30;9.37;;;;;;;2.70;91.70;101099.53;5034985;28;20876;-68
2023/01/20 10:31:47;;;;;;;27.07;10.40;;;;;;;2.83;90.98;101104.63;5034933;28;20434;-68
2023/01/20 10:34:19;;;;;;;21.70;9.57;;;;;;;2.89;90.31;101109.06;5034562;28;20431;-69
2023/01/20 10:36:50;;;;;;;27.00;11.13;;;;;;;2.93;89.73;101106.72;5034701;28;20486;-68
2023/01/20 10:39:27;;;;;;;29.27;10.33;;;;;;;3.02;89.23;101103.44;5034771;28;20426;-69
2023/01/20 10:42:02;;;;;;;33.33;10.47;;;;;;;3.13;88.58;101115.13;5034760;28;20512;-68
2023/01/20 10:44:28;;;;;;;27.57;10.97;;;;;;;3.21;88.43;101112.06;5034341;28;20911;-68
2023/01/20 10:47:14;;;;;;;25.70;10.03;;;;;;;3.24;88.16;101110.81;5034571;28;20471;-68
2023/01/20 10:50:27;;;;;;;29.10;10.07;;;;;;;3.21;89.05;101113.94;5034537;28;20533;-68
2023/01/20 10:53:09;;;;;;;35.70;12.03;;;;;;;3.29;88.25;101114.38;5033916;28;20454;-68
2023/01/20 10:55:49;;;;;;;31.73;10.83;;;;;;;3.38;88.30;101114.00;5034204;28;20558;-69
2023/01/20 10:58:20;;;;;;;24.43;10.13;;;;;;;3.21;87.81;101111.28;5034394;28;20426;-68
2023/01/20 11:00:48;;;;;;;28.13;9.80;;;;;;;3.12;87.68;101116.19;5034030;28;20432;-68
2023/01/20 11:03:18;;;;;;;21.70;8.60;;;;;;;2.99;88.83;101122.63;5034265;28;20497;-68
2023/01/20 11:05:47;;;;;;;27.33;10.87;;;;;;;3.16;88.49;101122.69;5034184;28;20528;-68
2023/01/20 11:08:18;;;;;;;29.70;10.70;;;;;;;3.21;88.70;101124.66;5034157;28;20471;-68
2023/01/20 11:10:46;;;;;;;26.50;11.07;;;;;;;3.31;88.40;101132.06;5033410;28;20473;-68
2023/01/20 11:13:13;;;;;;;22.57;11.50;;;;;;;3.38;88.20;101138.09;5034061;28;20471;-68
2023/01/20 11:15:44;;;;;;;40.13;12.23;;;;;;;3.40;87.98;101126.06;5033973;28;20473;-68
2023/01/20 11:18:28;;;;;;;26.17;9.90;;;;;;;3.43;87.63;101138.19;5034053;28;20431;-68
2023/01/20 11:20:58;;;;;;;28.43;10.43;;;;;;;3.45;86.73;101141.41;5033998;28;20489;-68
2023/01/20 11:23:36;;;;;;;21.27;8.53;;;;;;;3.41;87.26;101137.59;5033853;28;20442;-68
2023/01/20 11:26:08;;;;;;;27.93;9.80;;;;;;;3.49;87.39;101139.88;5033781;28;20458;-68
2023/01/20 11:28:45;;;;;;;21.07;8.73;;;;;;;3.42;85.95;101148.09;5033578;28;20432;-68
2023/01/20 11:31:12;;;;;;;33.10;10.50;;;;;;;3.42;86.08;101133.88;5033774;28;20777;-68
2023/01/20 11:33:38;;;;;;;25.00;8.77;;;;;;;3.27;86.33;101134.41;5033713;28;20564;-68
2023/01/20 11:36:14;;;;;;;28.17;10.83;;;;;;;3.34;86.49;101132.41;5033471;28;20830;-68
2023/01/20 11:38:48;;;;;;;21.50;10.53;;;;;;;3.28;86.28;101144.88;5033299;28;20900;-68
2023/01/20 11:41:18;;;;;;;31.40;10.33;;;;;;;2.99;86.99;101135.19;5033390;28;20523;-69
2023/01/20 11:43:45;;;;;;;19.33;8.50;;;;;;;3.08;87.41;101144.47;5033522;28;20447;-67